createdAt,value
2023-01-18T00:00:39.272Z,93394.19
2023-01-18T00:03:08.902Z,93399.06
2023-01-18T00:05:41.096Z,93404.91
2023-01-18T00:08:12.703Z,93400.16
2023-01-18T00:10:40.172Z,93397.22
2023-01-18T00:13:06.987Z,93409.22
2023-01-18T00:15:34.752Z,93406.22
2023-01-18T00:18:01.981Z,93413.25
2023-01-18T00:20:30.070Z,93421.25
2023-01-18T00:22:59.783Z,93417.53
2023-01-18T00:25:26.702Z,93410.13
2023-01-18T00:27:55.066Z,93402.16
2023-01-18T00:30:27.768Z,93414.00
2023-01-18T00:32:57.466Z,93427.25
2023-01-18T00:35:26.155Z,93423.84
2023-01-18T00:37:53.960Z,93416.25
2023-01-18T00:40:22.219Z,93426.00
2023-01-18T00:43:07.718Z,93404.59
2023-01-18T00:45:34.824Z,93386.75
2023-01-18T00:48:02.710Z,93387.88
2023-01-18T00:50:30.116Z,93403.41
2023-01-18T00:52:58.692Z,93393.28
2023-01-18T00:55:26.628Z,93395.19
2023-01-18T00:57:53.842Z,93385.56
2023-01-18T01:00:26.679Z,93384.81
2023-01-18T01:02:54.504Z,93397.50
2023-01-18T01:05:42.696Z,93397.06
2023-01-18T01:08:16.943Z,93414.66
2023-01-18T01:10:46.484Z,93416.56
2023-01-18T01:13:38.862Z,93404.59
2023-01-18T01:16:25.741Z,93408.63
2023-01-18T01:19:11.418Z,93409.66
2023-01-18T01:21:57.577Z,93401.25
2023-01-18T01:24:42.988Z,93416.69
2023-01-18T01:27:11.355Z,93425.00
2023-01-18T01:29:38.622Z,93408.78
2023-01-18T01:32:05.857Z,93422.59
2023-01-18T01:34:33.149Z,93432.09
2023-01-18T01:36:59.987Z,93422.09
2023-01-18T01:39:26.805Z,93408.56
2023-01-18T01:41:53.980Z,93426.47
2023-01-18T01:44:20.845Z,93429.88
2023-01-18T01:46:52.270Z,93414.34
2023-01-18T01:49:32.323Z,93417.03
2023-01-18T01:52:05.040Z,93418.75
2023-01-18T01:54:58.088Z,93451.78
2023-01-18T01:57:28.908Z,93439.53
2023-01-18T02:00:04.102Z,93433.19
2023-01-18T02:02:39.584Z,93446.91
2023-01-18T02:05:09.473Z,93452.19
2023-01-18T02:07:36.351Z,93427.97
2023-01-18T02:10:04.929Z,93409.50
2023-01-18T02:12:33.001Z,93403.97
2023-01-18T02:15:00.540Z,93433.16
2023-01-18T02:17:47.683Z,93415.47
2023-01-18T02:20:48.547Z,93407.16
2023-01-18T02:23:42.488Z,93430.09
2023-01-18T02:26:30.509Z,93429.25
2023-01-18T02:29:18.306Z,93386.28
2023-01-18T02:32:14.142Z,93403.22
2023-01-18T02:34:48.257Z,93410.13
2023-01-18T02:38:09.123Z,93405.72
2023-01-18T02:40:54.980Z,93399.72
2023-01-18T02:43:43.508Z,93401.72
2023-01-18T02:46:33.661Z,93414.38
2023-01-18T02:49:08.530Z,93422.78
2023-01-18T02:51:35.706Z,93413.19
2023-01-18T02:54:24.330Z,93391.81
2023-01-18T02:56:54.001Z,93414.00
2023-01-18T02:59:20.683Z,93440.22
2023-01-18T03:01:53.472Z,93446.06
2023-01-18T03:04:28.970Z,93466.66
2023-01-18T03:07:21.495Z,93439.97
2023-01-18T03:09:48.774Z,93424.09
2023-01-18T03:12:18.552Z,93409.22
2023-01-18T03:14:54.800Z,93426.25
2023-01-18T03:17:46.765Z,93419.00
2023-01-18T03:20:19.635Z,93409.56
2023-01-18T03:23:10.432Z,93395.34
2023-01-18T03:25:41.329Z,93384.75
2023-01-18T03:28:38.195Z,93427.81
2023-01-18T03:31:28.695Z,93382.44
2023-01-18T03:34:14.327Z,93416.31
2023-01-18T03:36:47.845Z,93402.97
2023-01-18T03:39:23.587Z,93396.66
2023-01-18T03:41:53.759Z,93377.66
2023-01-18T03:44:29.373Z,93388.38
2023-01-18T03:46:57.383Z,93401.53
2023-01-18T03:49:27.355Z,93397.25
2023-01-18T03:51:59.951Z,93406.91
2023-01-18T03:54:41.906Z,93419.19
2023-01-18T03:57:38.718Z,93418.66
2023-01-18T04:00:09.461Z,93401.94
2023-01-18T04:02:47.159Z,93392.38
2023-01-18T04:05:14.668Z,93378.50
2023-01-18T04:07:42.808Z,93391.41
2023-01-18T04:10:11.006Z,93412.03
2023-01-18T04:12:37.763Z,93434.72
2023-01-18T04:15:05.269Z,93428.22
2023-01-18T04:17:32.057Z,93416.47
2023-01-18T04:19:58.915Z,93410.91
2023-01-18T04:22:26.760Z,93424.75
2023-01-18T04:24:53.665Z,93407.47
2023-01-18T04:27:20.659Z,93414.19
2023-01-18T04:29:48.059Z,93424.66
2023-01-18T04:32:14.800Z,93377.00
2023-01-18T04:34:41.667Z,93391.59
2023-01-18T04:37:08.869Z,93411.56
2023-01-18T04:39:36.709Z,93409.47
2023-01-18T04:42:03.617Z,93431.84
2023-01-18T04:44:30.364Z,93406.78
2023-01-18T04:46:57.122Z,93390.31
2023-01-18T04:49:24.208Z,93385.47
2023-01-18T04:51:51.084Z,93397.56
2023-01-18T04:54:19.106Z,93376.97
2023-01-18T04:56:46.107Z,93379.41
2023-01-18T04:59:16.047Z,93385.81
2023-01-18T05:01:43.312Z,93418.06
2023-01-18T05:04:10.356Z,93398.34
2023-01-18T05:06:37.197Z,93380.97
2023-01-18T05:09:04.060Z,93416.75
2023-01-18T05:11:31.079Z,93386.28
2023-01-18T05:13:57.785Z,93379.00
2023-01-18T05:16:24.901Z,93409.28
2023-01-18T05:18:51.827Z,93390.44
2023-01-18T05:21:18.816Z,93393.34
2023-01-18T05:23:45.976Z,93401.94
2023-01-18T05:26:19.071Z,93379.91
2023-01-18T05:28:46.501Z,93403.53
2023-01-18T05:31:14.899Z,93416.94
2023-01-18T05:33:41.763Z,93413.28
2023-01-18T05:36:08.811Z,93428.00
2023-01-18T05:38:35.580Z,93444.53
2023-01-18T05:41:02.528Z,93429.59
2023-01-18T05:43:30.006Z,93407.28
2023-01-18T05:45:57.300Z,93442.09
2023-01-18T05:48:24.725Z,93422.25
2023-01-18T05:50:55.332Z,93425.09
2023-01-18T05:53:23.024Z,93438.03
2023-01-18T05:55:58.757Z,93445.50
2023-01-18T05:58:26.916Z,93442.81
2023-01-18T06:00:53.868Z,93446.84
2023-01-18T06:03:21.296Z,93453.44
2023-01-18T06:05:48.556Z,93427.47
2023-01-18T06:08:15.958Z,93434.63
2023-01-18T06:10:43.598Z,93441.28
2023-01-18T06:13:10.793Z,93428.38
2023-01-18T06:15:37.838Z,93436.84
2023-01-18T06:18:04.801Z,93445.47
2023-01-18T06:20:31.816Z,93463.06
2023-01-18T06:22:59.057Z,93465.59
2023-01-18T06:25:26.103Z,93462.63
2023-01-18T06:27:52.966Z,93476.28
2023-01-18T06:30:20.344Z,93475.44
2023-01-18T06:32:49.270Z,93470.75
2023-01-18T06:35:16.563Z,93475.59
2023-01-18T06:37:45.492Z,93489.31
2023-01-18T06:40:12.599Z,93487.69
2023-01-18T06:42:41.179Z,93477.56
2023-01-18T06:45:08.516Z,93471.94
2023-01-18T06:47:35.293Z,93461.66
2023-01-18T06:50:02.195Z,93465.78
2023-01-18T06:52:28.920Z,93438.19
2023-01-18T06:54:55.769Z,93451.28
2023-01-18T06:57:22.989Z,93449.75
2023-01-18T06:59:49.848Z,93438.81
2023-01-18T07:02:16.665Z,93428.88
2023-01-18T07:04:45.315Z,93419.47
2023-01-18T07:07:13.448Z,93446.81
2023-01-18T07:09:40.193Z,93430.13
2023-01-18T07:12:07.019Z,93410.09
2023-01-18T07:14:34.318Z,93439.72
2023-01-18T07:17:01.261Z,93391.41
2023-01-18T07:19:28.068Z,93425.50
2023-01-18T07:21:54.895Z,93409.06
2023-01-18T07:24:22.389Z,93414.22
2023-01-18T07:26:49.207Z,93422.44
2023-01-18T07:29:16.279Z,93434.88
2023-01-18T07:31:43.246Z,93416.94
2023-01-18T07:34:10.980Z,93448.53
2023-01-18T07:36:41.929Z,93426.25
2023-01-18T07:39:09.936Z,93442.50
2023-01-18T07:41:37.772Z,93466.09
2023-01-18T07:44:05.147Z,93425.59
2023-01-18T07:46:32.351Z,93486.31
2023-01-18T07:48:59.360Z,93482.09
2023-01-18T07:51:26.172Z,93516.59
2023-01-18T07:53:54.696Z,93526.56
2023-01-18T07:56:22.834Z,93538.44
2023-01-18T07:58:49.732Z,93555.91
2023-01-18T08:01:22.139Z,93538.44
2023-01-18T08:03:50.298Z,93542.84
2023-01-18T08:06:27.444Z,93553.00
2023-01-18T08:08:55.943Z,93574.41
2023-01-18T08:11:23.202Z,93575.69
2023-01-18T08:13:52.495Z,93558.44
2023-01-18T08:16:19.342Z,93598.22
2023-01-18T08:18:49.270Z,93625.06
2023-01-18T08:21:16.122Z,93604.97
2023-01-18T08:23:43.089Z,93614.00
2023-01-18T08:26:10.779Z,93580.91
2023-01-18T08:28:37.619Z,93600.84
2023-01-18T08:31:16.660Z,93590.06
2023-01-18T08:33:46.025Z,93607.78
2023-01-18T08:36:15.858Z,93576.13
2023-01-18T08:38:42.947Z,93591.38
2023-01-18T08:41:09.693Z,93599.59
2023-01-18T08:43:37.998Z,93566.59
2023-01-18T08:46:05.026Z,93602.75
2023-01-18T08:48:31.849Z,93593.66
2023-01-18T08:51:02.885Z,93596.38
2023-01-18T08:53:30.858Z,93594.97
2023-01-18T08:55:57.904Z,93610.28
2023-01-18T08:58:25.195Z,93625.28
2023-01-18T09:00:53.548Z,93615.38
2023-01-18T09:03:22.290Z,93615.78
2023-01-18T09:05:50.103Z,93616.94
2023-01-18T09:08:17.961Z,93624.25
2023-01-18T09:10:44.956Z,93609.44
2023-01-18T09:13:11.749Z,93620.13
2023-01-18T09:15:38.893Z,93628.56
2023-01-18T09:18:07.659Z,93624.44
2023-01-18T09:20:36.218Z,93652.16
2023-01-18T09:23:07.671Z,93624.88
2023-01-18T09:25:37.825Z,93638.88
2023-01-18T09:28:05.196Z,93645.09
2023-01-18T09:30:33.127Z,93621.34
2023-01-18T09:33:01.114Z,93636.50
2023-01-18T09:35:28.495Z,93639.38
2023-01-18T09:37:56.869Z,93638.53
2023-01-18T09:40:36.409Z,93633.56
2023-01-18T09:43:03.484Z,93658.72
2023-01-18T09:45:35.076Z,93643.38
2023-01-18T09:48:28.901Z,93641.75
2023-01-18T09:51:00.751Z,93629.78
2023-01-18T09:53:53.422Z,93627.03
2023-01-18T09:56:29.819Z,93607.13
2023-01-18T09:59:35.754Z,93584.13
2023-01-18T10:02:12.696Z,93609.25
2023-01-18T10:04:43.282Z,93605.75
2023-01-18T10:07:18.367Z,93597.03
2023-01-18T10:09:50.310Z,93621.47
2023-01-18T10:12:43.628Z,93607.44
2023-01-18T10:15:28.151Z,93627.03
2023-01-18T10:17:57.674Z,93667.63
2023-01-18T10:20:45.519Z,93638.50
2023-01-18T10:23:15.675Z,93650.44
2023-01-18T10:25:52.350Z,93657.59
2023-01-18T10:28:28.179Z,93640.28
2023-01-18T10:31:36.736Z,93675.03
2023-01-18T10:34:11.839Z,93666.44
2023-01-18T10:36:43.806Z,93670.31
2023-01-18T10:39:38.451Z,93691.41
2023-01-18T10:42:29.291Z,93655.28
2023-01-18T10:44:56.146Z,93673.69
2023-01-18T10:47:22.949Z,93684.66
2023-01-18T10:49:51.490Z,93690.38
2023-01-18T10:52:29.744Z,93701.16
2023-01-18T10:55:02.420Z,93700.59
2023-01-18T10:57:36.922Z,93687.56
2023-01-18T11:00:21.269Z,93703.84
2023-01-18T11:02:50.672Z,93689.06
2023-01-18T11:05:23.479Z,93701.16
2023-01-18T11:08:12.182Z,93676.50
2023-01-18T11:10:40.275Z,93671.50
2023-01-18T11:13:47.218Z,93679.19
2023-01-18T11:16:20.895Z,93668.63
2023-01-18T11:19:17.493Z,93663.19
2023-01-18T11:21:47.063Z,93653.88
2023-01-18T11:24:42.436Z,93665.88
2023-01-18T11:27:16.717Z,93662.94
2023-01-18T11:29:45.981Z,93675.53
2023-01-18T11:32:24.444Z,93689.31
2023-01-18T11:34:54.637Z,93682.00
2023-01-18T11:37:37.905Z,93689.88
2023-01-18T11:40:26.736Z,93680.47
2023-01-18T11:43:25.166Z,93698.56
2023-01-18T11:45:59.515Z,93719.50
2023-01-18T11:48:33.424Z,93686.84
2023-01-18T11:51:10.241Z,93687.47
2023-01-18T11:53:37.206Z,93698.78
2023-01-18T11:56:14.864Z,93709.09
2023-01-18T11:58:41.821Z,93702.22
2023-01-18T12:01:37.756Z,93694.63
2023-01-18T12:04:11.977Z,93690.44
2023-01-18T12:06:54.978Z,93704.72
2023-01-18T12:09:35.647Z,93696.09
2023-01-18T12:12:19.830Z,93690.13
2023-01-18T12:15:05.424Z,93702.97
2023-01-18T12:18:13.539Z,93701.47
2023-01-18T12:20:49.876Z,93719.06
2023-01-18T12:23:28.779Z,93713.41
2023-01-18T12:26:11.430Z,93712.31
2023-01-18T12:28:45.047Z,93743.75
2023-01-18T12:31:30.383Z,93722.19
2023-01-18T12:34:27.070Z,93725.19
2023-01-18T12:37:18.293Z,93731.38
2023-01-18T12:40:21.880Z,93731.06
2023-01-18T12:43:10.173Z,93720.91
2023-01-18T12:45:52.029Z,93726.41
2023-01-18T12:48:21.776Z,93730.38
2023-01-18T12:50:51.153Z,93753.63
2023-01-18T12:53:28.724Z,93752.75
2023-01-18T12:55:56.583Z,93730.34
2023-01-18T12:58:26.440Z,93762.94
2023-01-18T13:01:05.746Z,93759.91
2023-01-18T13:03:41.335Z,93769.91
2023-01-18T13:06:09.915Z,93756.09
2023-01-18T13:08:57.268Z,93770.25
2023-01-18T13:11:41.543Z,93786.53
2023-01-18T13:14:17.986Z,93775.19
2023-01-18T13:17:10.949Z,93795.09
2023-01-18T13:19:58.688Z,93798.97
2023-01-18T13:22:37.535Z,93786.88
2023-01-18T13:25:31.380Z,93782.91
2023-01-18T13:28:02.235Z,93786.53
2023-01-18T13:30:32.245Z,93786.47
2023-01-18T13:32:59.919Z,93785.94
2023-01-18T13:35:33.309Z,93784.91
2023-01-18T13:38:12.498Z,93780.94
2023-01-18T13:40:51.886Z,93778.50
2023-01-18T13:43:35.372Z,93793.91
2023-01-18T13:46:06.731Z,93790.28
2023-01-18T13:48:54.405Z,93788.78
2023-01-18T13:51:40.809Z,93785.72
2023-01-18T13:54:14.897Z,93790.50
2023-01-18T13:57:01.739Z,93795.78
2023-01-18T13:59:33.911Z,93802.56
2023-01-18T14:02:27.649Z,93820.41
2023-01-18T14:05:25.785Z,93819.69
2023-01-18T14:07:59.488Z,93799.78
2023-01-18T14:10:31.424Z,93808.97
2023-01-18T14:13:01.061Z,93817.69
2023-01-18T14:15:39.591Z,93822.72
2023-01-18T14:18:33.053Z,93837.22
2023-01-18T14:21:12.427Z,93838.44
2023-01-18T14:24:15.035Z,93839.81
2023-01-18T14:26:44.183Z,93843.97
2023-01-18T14:29:35.852Z,93840.75
2023-01-18T14:32:06.712Z,93846.09
2023-01-18T14:34:39.836Z,93856.81
2023-01-18T14:37:29.781Z,93862.63
2023-01-18T14:40:17.165Z,93859.84
2023-01-18T14:42:49.614Z,93867.47
2023-01-18T14:45:27.367Z,93870.75
2023-01-18T14:47:56.234Z,93872.66
2023-01-18T14:50:25.138Z,93870.47
2023-01-18T14:52:53.155Z,93866.72
2023-01-18T14:56:01.215Z,93866.88
2023-01-18T14:58:28.157Z,93864.97
2023-01-18T15:00:55.332Z,93866.94
2023-01-18T15:03:30.689Z,93873.06
2023-01-18T15:06:11.302Z,93863.41
2023-01-18T15:08:40.182Z,93872.66
2023-01-18T15:11:07.316Z,93881.13
2023-01-18T15:13:47.596Z,93888.44
2023-01-18T15:16:21.666Z,93876.97
2023-01-18T15:18:53.922Z,93873.06
2023-01-18T15:21:24.664Z,93882.97
2023-01-18T15:23:57.889Z,93880.22
2023-01-18T15:26:40.080Z,93880.63
2023-01-18T15:29:14.055Z,93863.63
2023-01-18T15:31:47.534Z,93878.72
2023-01-18T15:34:16.702Z,93877.56
2023-01-18T15:36:44.794Z,93867.47
2023-01-18T15:39:13.962Z,93872.09
2023-01-18T15:41:44.044Z,93883.78
2023-01-18T15:44:47.939Z,93865.84
2023-01-18T15:47:24.576Z,93880.59
2023-01-18T15:49:53.824Z,93891.53
2023-01-18T15:52:43.994Z,93878.72
2023-01-18T15:55:35.942Z,93875.22
2023-01-18T15:58:25.073Z,93877.09
2023-01-18T16:00:58.300Z,93885.50
2023-01-18T16:03:34.108Z,93864.38
2023-01-18T16:06:12.699Z,93866.66
2023-01-18T16:09:00.327Z,93867.94
2023-01-18T16:11:30.319Z,93862.38
2023-01-18T16:13:59.089Z,93848.06
2023-01-18T16:16:26.948Z,93854.03
2023-01-18T16:19:19.520Z,93860.38
2023-01-18T16:21:59.697Z,93861.94
2023-01-18T16:24:29.732Z,93870.75
2023-01-18T16:27:00.396Z,93873.53
2023-01-18T16:29:27.389Z,93873.50
2023-01-18T16:32:19.412Z,93869.50
2023-01-18T16:34:46.364Z,93882.69
2023-01-18T16:37:13.427Z,93883.75
2023-01-18T16:39:41.043Z,93868.41
2023-01-18T16:42:11.095Z,93881.88
2023-01-18T16:44:39.611Z,93887.19
2023-01-18T16:47:06.546Z,93893.34
2023-01-18T16:49:33.288Z,93886.63
2023-01-18T16:52:00.162Z,93881.88
2023-01-18T16:54:26.907Z,93886.53
2023-01-18T16:56:53.781Z,93892.97
2023-01-18T16:59:22.292Z,93873.09
2023-01-18T17:01:50.348Z,93879.88
2023-01-18T17:04:17.833Z,93869.69
2023-01-18T17:06:45.054Z,93862.78
2023-01-18T17:09:20.060Z,93866.16
2023-01-18T17:11:47.947Z,93868.25
2023-01-18T17:14:15.180Z,93868.88
2023-01-18T17:16:43.314Z,93866.63
2023-01-18T17:19:21.317Z,93857.19
2023-01-18T17:21:50.126Z,93860.56
2023-01-18T17:24:21.141Z,93879.44
2023-01-18T17:26:48.444Z,93878.66
2023-01-18T17:29:17.957Z,93890.31
2023-01-18T17:31:52.227Z,93887.41
2023-01-18T17:34:28.399Z,93904.69
2023-01-18T17:36:58.264Z,93897.56
2023-01-18T17:39:32.123Z,93905.00
2023-01-18T17:42:14.287Z,93910.59
2023-01-18T17:44:43.506Z,93906.31
2023-01-18T17:47:10.440Z,93917.50
2023-01-18T17:49:37.091Z,93934.13
2023-01-18T17:52:04.083Z,93928.66
2023-01-18T17:54:30.857Z,93920.34
2023-01-18T17:56:58.060Z,93930.25
2023-01-18T17:59:24.787Z,93927.59
2023-01-18T18:01:51.680Z,93918.19
2023-01-18T18:04:18.632Z,93930.44
2023-01-18T18:06:53.720Z,93936.88
2023-01-18T18:09:20.957Z,93933.69
2023-01-18T18:11:48.084Z,93934.88
2023-01-18T18:14:17.026Z,93932.56
2023-01-18T18:16:44.628Z,93941.75
2023-01-18T18:19:14.561Z,93944.31
2023-01-18T18:21:43.000Z,93932.22
2023-01-18T18:24:10.080Z,93931.78
2023-01-18T18:26:37.065Z,93930.97
2023-01-18T18:29:04.184Z,93935.44
2023-01-18T18:31:31.110Z,93939.72
2023-01-18T18:33:58.240Z,93925.28
2023-01-18T18:36:27.475Z,93950.94
2023-01-18T18:38:54.513Z,93916.56
2023-01-18T18:41:21.671Z,93945.19
2023-01-18T18:43:48.383Z,93957.41
2023-01-18T18:46:15.236Z,93939.09
2023-01-18T18:48:42.624Z,93962.97
2023-01-18T18:51:09.968Z,93969.19
2023-01-18T18:53:40.069Z,93956.44
2023-01-18T18:56:10.333Z,93963.63
2023-01-18T18:58:38.460Z,93962.78
2023-01-18T19:01:06.572Z,93949.97
2023-01-18T19:03:36.917Z,93957.66
2023-01-18T19:06:03.737Z,93966.09
2023-01-18T19:08:31.013Z,93972.56
2023-01-18T19:10:57.836Z,93995.00
2023-01-18T19:13:24.535Z,94000.97
2023-01-18T19:15:51.739Z,94018.13
2023-01-18T19:18:18.678Z,93987.66
2023-01-18T19:20:46.205Z,93986.09
2023-01-18T19:23:13.354Z,94006.28
2023-01-18T19:25:40.660Z,94045.84
2023-01-18T19:28:07.771Z,94040.47
2023-01-18T19:30:34.913Z,93979.38
2023-01-18T19:33:03.226Z,93996.53
2023-01-18T19:35:31.216Z,93997.72
2023-01-18T19:38:00.866Z,93995.59
2023-01-18T19:40:27.739Z,94020.66
2023-01-18T19:42:54.653Z,94031.06
2023-01-18T19:45:28.290Z,94028.44
2023-01-18T19:47:58.523Z,94034.72
2023-01-18T19:50:27.008Z,94008.94
2023-01-18T19:52:54.644Z,94027.97
2023-01-18T19:55:21.725Z,94022.44
2023-01-18T19:57:49.874Z,94029.31
2023-01-18T20:00:17.079Z,94034.19
2023-01-18T20:02:44.415Z,94036.75
2023-01-18T20:05:11.320Z,94015.09
2023-01-18T20:07:39.567Z,94027.09
2023-01-18T20:10:07.728Z,94031.28
2023-01-18T20:12:35.027Z,94041.66
2023-01-18T20:15:01.850Z,94044.19
2023-01-18T20:17:28.734Z,94033.88
2023-01-18T20:19:55.467Z,94018.78
2023-01-18T20:22:23.613Z,94035.69
2023-01-18T20:24:51.447Z,94041.72
2023-01-18T20:27:18.166Z,94026.19
2023-01-18T20:29:45.411Z,94044.69
2023-01-18T20:32:16.503Z,94049.03
2023-01-18T20:34:45.299Z,94057.88
2023-01-18T20:37:15.964Z,94040.75
2023-01-18T20:39:42.942Z,94038.19
2023-01-18T20:42:10.143Z,94057.34
2023-01-18T20:44:37.493Z,94069.88
2023-01-18T20:47:04.917Z,94010.19
2023-01-18T20:49:39.230Z,94032.94
2023-01-18T20:52:07.527Z,94027.09
2023-01-18T20:54:36.312Z,94024.31
2023-01-18T20:57:04.729Z,94045.44
2023-01-18T20:59:31.642Z,94018.84
2023-01-18T21:01:58.556Z,93991.59
2023-01-18T21:04:25.591Z,94026.19
2023-01-18T21:06:52.599Z,94019.41
2023-01-18T21:09:19.391Z,94022.41
2023-01-18T21:11:46.227Z,94023.13
2023-01-18T21:14:13.040Z,94016.91
2023-01-18T21:16:40.363Z,94009.72
2023-01-18T21:19:07.274Z,93991.44
2023-01-18T21:21:34.020Z,93985.22
2023-01-18T21:24:01.239Z,93988.25
2023-01-18T21:26:28.174Z,93994.59
2023-01-18T21:28:55.251Z,93995.34
2023-01-18T21:31:22.009Z,93968.81
2023-01-18T21:33:49.403Z,93994.59
2023-01-18T21:36:17.931Z,93997.13
2023-01-18T21:38:45.027Z,93970.69
2023-01-18T21:41:30.633Z,93977.94
2023-01-18T21:44:15.737Z,93975.84
2023-01-18T21:46:47.283Z,93954.66
2023-01-18T21:49:47.063Z,93952.22
2023-01-18T21:52:38.315Z,93977.09
2023-01-18T21:55:05.566Z,93962.63
2023-01-18T21:57:35.048Z,93956.25
2023-01-18T22:00:02.296Z,93965.81
2023-01-18T22:02:34.382Z,93960.22
2023-01-18T22:05:03.283Z,93957.81
2023-01-18T22:07:32.750Z,93958.22
2023-01-18T22:10:04.987Z,93964.03
2023-01-18T22:12:36.101Z,93974.34
2023-01-18T22:15:04.452Z,93971.94
2023-01-18T22:17:31.732Z,93958.88
2023-01-18T22:19:58.431Z,93962.28
2023-01-18T22:22:25.187Z,93975.00
2023-01-18T22:24:52.137Z,93967.50
2023-01-18T22:27:18.911Z,93966.91
2023-01-18T22:29:45.740Z,93975.16
2023-01-18T22:32:12.711Z,93960.81
2023-01-18T22:34:39.595Z,93949.16
2023-01-18T22:37:07.375Z,93956.47
2023-01-18T22:39:34.220Z,93941.69
2023-01-18T22:42:00.978Z,93950.03
2023-01-18T22:44:27.730Z,93956.47
2023-01-18T22:46:54.574Z,93942.16
2023-01-18T22:49:21.836Z,93949.78
2023-01-18T22:51:48.688Z,93953.47
2023-01-18T22:54:16.014Z,93956.66
2023-01-18T22:56:43.891Z,93960.63
2023-01-18T22:59:13.051Z,93952.50
2023-01-18T23:01:40.065Z,93938.06
2023-01-18T23:04:06.815Z,93947.13
2023-01-18T23:06:45.567Z,93954.03
2023-01-18T23:09:14.598Z,93938.53
2023-01-18T23:11:41.520Z,93913.16
2023-01-18T23:14:27.793Z,93929.56
2023-01-18T23:17:13.583Z,93927.22
2023-01-18T23:19:40.584Z,93935.88
2023-01-18T23:22:07.669Z,93929.91
2023-01-18T23:24:36.632Z,93951.59
2023-01-18T23:27:04.672Z,93941.50
2023-01-18T23:29:31.620Z,93923.00
2023-01-18T23:31:58.720Z,93928.22
2023-01-18T23:34:25.831Z,93945.34
2023-01-18T23:36:53.040Z,93933.41
2023-01-18T23:39:38.740Z,93936.69
2023-01-18T23:42:24.415Z,93937.16
2023-01-18T23:45:09.829Z,93941.69
2023-01-18T23:47:55.622Z,93949.22
2023-01-18T23:50:41.338Z,93947.09
2023-01-18T23:53:30.576Z,93942.25
2023-01-18T23:55:57.879Z,93959.00
2023-01-18T23:58:25.653Z,93947.03
